FW1402 Washington DC US current weather conditions

sailwx.info

Wind from 033 at 1 knots gusting 3

Air temperature 9.4° C
Dewpoint 8.1° C

Last reported at 2020-Jan-25 12:57 UTC.
Time now 2020-Jan-25 13:28 UTC

Location: N 38°54' W 077°04'.
View on Google Maps.

See reports from other nearby stations

  
Tides and Currents Weather Stations Pressure Air Temp Water Temp Dewpoint Dewpoint Depression Visibility Wind Speed Wind Dir Waves Ship Positions
date/time (UTC)wind fromknots sea level pressurealtimeterstation pressurevisibilityair tempwater tempwave heightnotes
2020-Jan-25 13:07 056 1 gusting 1 9.4
2020-Jan-25 12:57 033 1 gusting 3 9.4
2020-Jan-25 12:47 011 0 gusting 1 9.4
2020-Jan-25 12:37 056 1 gusting 2 9.4
2020-Jan-25 12:27 045 1 gusting 2 9.4
2020-Jan-25 12:07 9.4
2020-Jan-25 11:47 9.4
2020-Jan-25 11:17 022 2 gusting 3 9.4
2020-Jan-25 10:57 045 0 gusting 1 10.0
2020-Jan-25 10:27 337 1 gusting 1 10.0
2020-Jan-25 09:47 281 1 gusting 4 10.0
2020-Jan-25 09:37 270 2 gusting 3 10.0
2020-Jan-25 08:47 045 3 gusting 4 9.4
2020-Jan-25 08:07 135 9.4
2020-Jan-25 07:57 135 0 gusting 1 9.4
2020-Jan-25 07:47 045 1 gusting 2 9.4
2020-Jan-25 07:37 045 1 gusting 3 9.4
2020-Jan-25 07:27 056 1 gusting 2 9.4
2020-Jan-25 07:07 078 1 gusting 1 9.4
2020-Jan-25 06:57 090 1 gusting 2 9.4
2020-Jan-25 06:47 033 1 gusting 2 9.4
2020-Jan-25 06:37 056 1 gusting 3 9.4
2020-Jan-25 06:27 067 1 gusting 3 9.4
2020-Jan-25 05:37 067 2 gusting 3 9.4
2020-Jan-25 05:17 078 2 gusting 3 9.4
2020-Jan-25 05:07 056 2 gusting 2 10.0
2020-Jan-25 04:57 090 1 gusting 2 10.0
2020-Jan-25 04:47 090 2 gusting 3 10.0
2020-Jan-25 04:27 067 3 gusting 3 10.0
2020-Jan-25 04:17 056 1 gusting 3 10.0
2020-Jan-25 04:07 033 1 gusting 2 10.0
2020-Jan-25 03:47 078 2 gusting 3 10.0
2020-Jan-25 03:37 067 2 gusting 3 10.0
2020-Jan-25 03:17 067 2 gusting 2 10.0
2020-Jan-25 03:07 090 2 gusting 4 10.0
2020-Jan-25 02:27 056 3 gusting 4 10.0
2020-Jan-25 01:57 067 3 gusting 5 10.0
2020-Jan-25 01:37 067 2 gusting 3 10.0
2020-Jan-25 01:27 045 1 gusting 3 10.0
2020-Jan-25 01:07 056 3 gusting 5 10.6
2020-Jan-25 00:47 067 1 gusting 3 10.6
2020-Jan-25 00:27 056 3 gusting 4 10.6
2020-Jan-25 00:17 078 3 gusting 3 10.6
2020-Jan-25 00:07 067 2 gusting 3 10.6
2020-Jan-24 23:27 078 0 gusting 1 10.6
2020-Jan-24 23:17 067 1 gusting 1 10.6
2020-Jan-24 23:07 067 2 gusting 3 10.6
2020-Jan-24 22:27 045 1 gusting 2 10.6
2020-Jan-24 22:07 056 0 gusting 1 10.6
2020-Jan-24 21:57 078 1 gusting 3 10.6
2020-Jan-24 21:27 056 1 gusting 2 10.6
2020-Jan-24 20:47 033 1 gusting 3 10.6
2020-Jan-24 20:37 056 2 gusting 2 10.6
2020-Jan-24 20:27 056 1 gusting 2 10.0
2020-Jan-24 20:17 056 2 gusting 3 10.0
2020-Jan-24 19:57 056 0 gusting 2 10.0
2020-Jan-24 19:47 078 1 gusting 2 10.0
2020-Jan-24 19:37 056 2 gusting 3 10.0
2020-Jan-24 19:27 078 2 gusting 3 10.0
2020-Jan-24 19:17 067 2 gusting 3 10.0
2020-Jan-24 18:57 078 1 gusting 3 10.0
2020-Jan-24 18:47 067 1 gusting 2 10.0
2020-Jan-24 18:37 067 1 gusting 2 10.0
2020-Jan-24 18:27 056 2 gusting 3 10.0
2020-Jan-24 18:17 056 1 gusting 4 10.0
2020-Jan-24 18:07 045 3 gusting 3 10.0
2020-Jan-24 17:47 022 1 gusting 2 9.4
2020-Jan-24 17:37 056 2 gusting 3 9.4
2020-Jan-24 17:17 078 2 gusting 2 8.9
2020-Jan-24 16:57 101 1 gusting 2 8.9
2020-Jan-24 16:47 045 1 gusting 1 8.3
2020-Jan-24 16:17 045 0 gusting 1 7.8
2020-Jan-24 16:07 056 0 gusting 1 7.8
2020-Jan-24 15:47 067 0 gusting 2 7.2
2020-Jan-24 15:37 067 1 gusting 2 7.2
2020-Jan-24 15:27 056 2 gusting 4 6.7
2020-Jan-24 14:57 078 1 gusting 3 6.1
2020-Jan-24 14:47 067 1 gusting 2 6.1
2020-Jan-24 14:37 056 1 gusting 2 6.1
2020-Jan-24 14:07 056 1 gusting 2 5.6
2020-Jan-24 13:47 045 5.6
2020-Jan-24 13:27 045 0 gusting 1 5.6
2020-Jan-24 13:17 056 0 gusting 1 5.0
2020-Jan-24 13:07 067 0 gusting 1 5.0
2020-Jan-24 12:37 067 0 gusting 0 5.0
2020-Jan-24 12:27 067 5.0
2020-Jan-24 12:17 123 5.0
2020-Jan-24 12:07 123 5.0
2020-Jan-24 11:57 135 5.0
2020-Jan-24 11:37 135 5.0
2020-Jan-24 11:27 135 5.0
2020-Jan-24 11:17 135 5.0
2020-Jan-24 10:57 135 5.0
2020-Jan-24 10:47 135 5.0
2020-Jan-24 10:37 168 5.0
2020-Jan-24 10:27 168 5.0
2020-Jan-24 10:07 168 5.0
2020-Jan-24 09:57 168 5.0
2020-Jan-24 09:27 168 5.0
2020-Jan-24 09:17 168 5.0
2020-Jan-24 09:07 168 5.0
2020-Jan-24 08:57 168 5.0
2020-Jan-24 08:47 168 5.0
2020-Jan-24 08:37 168 5.0
2020-Jan-24 08:27 168 5.0
2020-Jan-24 08:07 168 5.0
2020-Jan-24 07:27 168 5.6
2020-Jan-24 07:07 168 5.6
2020-Jan-24 06:57 168 5.6
2020-Jan-24 05:57 168 5.0
2020-Jan-24 05:47 168 5.0
2020-Jan-24 05:27 168 5.0
2020-Jan-24 05:17 168 5.0
2020-Jan-24 04:57 168 5.0
2020-Jan-24 04:47 168 5.0
2020-Jan-24 04:37 168 5.0
2020-Jan-24 04:27 168 5.6
2020-Jan-24 04:17 168 5.6
2020-Jan-24 04:07 168 5.6
2020-Jan-24 03:47 168 5.6
2020-Jan-24 03:37 168 5.6
2020-Jan-24 03:27 168 5.6
2020-Jan-24 03:07 168 5.6
2020-Jan-24 02:47 168 5.6
2020-Jan-24 02:37 168 5.6
2020-Jan-24 02:17 168 5.6
2020-Jan-24 02:07 168 5.6
2020-Jan-24 01:47 168 6.1
2020-Jan-24 01:37 168 6.1
2020-Jan-24 01:07 168 6.1
2020-Jan-24 00:47 168 6.1
2020-Jan-24 00:37 168 6.1
2020-Jan-23 23:57 168 6.7
2020-Jan-23 23:17 168 6.7
2020-Jan-23 23:07 168 6.7
2020-Jan-23 22:57 168 6.7
2020-Jan-23 22:37 168 6.7
2020-Jan-23 22:17 168 6.7
2020-Jan-23 21:37 168 6.7
2020-Jan-23 21:27 168 6.7
2020-Jan-23 21:17 168 0 gusting 1 6.7
2020-Jan-23 21:07 135 0 gusting 1 6.7
2020-Jan-23 20:57 123 0 gusting 1 6.7
2020-Jan-23 20:27 191 0 gusting 0 6.7
2020-Jan-23 20:07 146 6.7
2020-Jan-23 19:57 157 6.7
2020-Jan-23 19:27 202 6.1
2020-Jan-23 19:17 168 6.1
2020-Jan-23 19:07 180 6.1
2020-Jan-23 18:57 202 6.1
2020-Jan-23 18:37 213 5.6
2020-Jan-23 18:27 213 0 gusting 0 5.6
2020-Jan-23 18:17 180 5.6
2020-Jan-23 18:07 180 5.6
2020-Jan-23 17:47 157 5.6
2020-Jan-23 17:27 191 5.6
2020-Jan-23 17:17 180 5.0
2020-Jan-23 16:17 168 3.9
2020-Jan-23 15:57 180 3.9
2020-Jan-23 15:37 180 3.3
2020-Jan-23 15:27 180 2.8
2020-Jan-23 15:17 180 2.8
2020-Jan-23 15:07 180 2.8
2020-Jan-23 14:47 180 2.8
2020-Jan-23 14:07 180 1.7
2020-Jan-23 13:57 180 1.7
2020-Jan-23 13:47 180 1.7
2020-Jan-23 13:27 180 1.1
2020-Jan-23 13:17 180 1.1